Time;durP1;ratioP1;P1;durP2;ratioP2;P2;SDS_P1;SDS_P2;PMS_P1;PMS_P2;Temp;Humidity;BMP_temperature;BMP_pressure;BME280_temperature;BME280_humidity;BME280_pressure;Samples;Min_cycle;Max_cycle;Signal;HPM_P1;HPM_P2
2022/07/10 00:02:02;;;;;;;6.10;1.40;;;;;;;12.05;100.00;102145.06;7383466;19;20415;-60
2022/07/10 00:04:34;;;;;;;2.10;0.80;;;;;;;12.14;100.00;102141.31;7391688;19;20781;-60
2022/07/10 00:07:05;;;;;;;4.67;0.80;;;;;;;12.19;100.00;102128.63;7385224;19;20412;-60
2022/07/10 00:09:35;;;;;;;5.80;1.00;;;;;;;12.18;100.00;102144.97;7392370;19;20810;-60
2022/07/10 00:12:05;;;;;;;7.93;0.90;;;;;;;12.16;100.00;102138.81;7382208;19;20436;-61
2022/07/10 00:14:35;;;;;;;7.87;1.10;;;;;;;12.13;100.00;102133.47;7391568;19;20386;-60
2022/07/10 00:17:04;;;;;;;5.33;1.20;;;;;;;12.14;100.00;102119.72;7381610;19;20421;-61
2022/07/10 00:19:36;;;;;;;7.17;1.13;;;;;;;12.13;100.00;102123.09;7391892;19;20422;-60
2022/07/10 00:22:06;;;;;;;7.73;1.50;;;;;;;12.09;100.00;102118.56;7390511;19;20416;-60
2022/07/10 00:24:36;;;;;;;5.67;1.37;;;;;;;12.12;100.00;102104.13;7396779;19;20390;-60
2022/07/10 00:27:07;;;;;;;5.00;1.00;;;;;;;12.12;100.00;102108.41;7391901;19;20400;-60
2022/07/10 00:29:36;;;;;;;4.20;1.07;;;;;;;12.12;100.00;102100.63;7397317;19;20390;-60
2022/07/10 00:32:07;;;;;;;7.00;1.07;;;;;;;12.09;100.00;102100.44;7390336;19;20413;-61
2022/07/10 00:34:39;;;;;;;9.40;1.50;;;;;;;12.05;100.00;102088.16;7395867;19;20379;-61
2022/07/10 00:37:08;;;;;;;4.50;1.23;;;;;;;12.05;100.00;102077.81;7387131;19;20521;-60
2022/07/10 00:39:38;;;;;;;5.83;1.13;;;;;;;12.03;100.00;102069.91;7397610;19;20403;-60
2022/07/10 00:42:11;;;;;;;6.03;1.10;;;;;;;12.08;100.00;102058.19;7387078;19;20422;-60
2022/07/10 00:44:41;;;;;;;7.00;1.13;;;;;;;12.04;100.00;102056.22;7394052;19;20398;-61
2022/07/10 00:47:13;;;;;;;25.80;7.03;;;;;;;12.04;100.00;102050.16;7387723;19;20412;-58
2022/07/10 00:49:46;;;;;;;23.60;10.20;;;;;;;12.48;100.00;102037.91;7396000;19;20454;-61
2022/07/10 00:52:16;;;;;;;13.57;3.47;;;;;;;12.36;100.00;102043.31;7386807;19;20945;-61
2022/07/10 00:54:47;;;;;;;17.70;9.53;;;;;;;12.38;100.00;102041.69;7393884;19;20427;-61
2022/07/10 00:57:17;;;;;;;18.83;8.70;;;;;;;12.51;100.00;102045.84;7388545;19;20424;-61
2022/07/10 00:59:47;;;;;;;9.03;1.97;;;;;;;12.40;100.00;102055.59;7399969;19;20400;-61
2022/07/10 01:02:17;;;;;;;13.50;5.63;;;;;;;12.35;100.00;102049.28;7387469;19;20415;-61
2022/07/10 01:04:49;;;;;;;6.90;1.43;;;;;;;12.25;100.00;102056.53;7396719;19;20423;-60
2022/07/10 01:07:18;;;;;;;7.40;1.30;;;;;;;12.37;100.00;102061.47;7394416;19;20404;-62
2022/07/10 01:09:49;;;;;;;7.73;1.57;;;;;;;12.35;100.00;102065.69;7398440;19;20459;-61
2022/07/10 01:12:19;;;;;;;7.13;1.20;;;;;;;12.38;100.00;102072.75;7388846;19;20421;-60
2022/07/10 01:14:49;;;;;;;7.60;2.07;;;;;;;12.37;100.00;102076.13;7397043;19;20762;-61
2022/07/10 01:17:19;;;;;;;7.90;2.40;;;;;;;12.35;100.00;102085.53;7392961;19;20413;-60
2022/07/10 01:19:51;;;;;;;4.00;1.17;;;;;;;12.23;100.00;102081.44;7398050;19;20388;-61
2022/07/10 01:22:23;;;;;;;7.27;0.97;;;;;;;12.22;100.00;102084.84;7388369;19;20411;-60
2022/07/10 01:24:54;;;;;;;4.03;1.33;;;;;;;12.24;100.00;102083.22;7396594;19;20416;-60
2022/07/10 01:27:23;;;;;;;16.77;2.17;;;;;;;12.26;100.00;102088.47;7390357;19;20415;-60
2022/07/10 01:29:53;;;;;;;16.90;2.97;;;;;;;12.26;100.00;102084.19;7397425;19;20384;-62
2022/07/10 01:32:23;;;;;;;5.47;1.40;;;;;;;12.28;100.00;102098.13;7385788;19;20412;-61
2022/07/10 01:34:52;;;;;;;4.33;1.20;;;;;;;12.22;100.00;102100.34;7388177;19;20471;-60
2022/07/10 01:37:24;;;;;;;10.03;1.60;;;;;;;12.21;100.00;102108.91;7389389;19;20892;-62
2022/07/10 01:39:54;;;;;;;6.17;1.83;;;;;;;12.33;100.00;102126.84;7397432;19;20389;-62
2022/07/10 01:42:24;;;;;;;5.70;1.30;;;;;;;12.31;100.00;102135.31;7387594;19;20419;-62
2022/07/10 01:44:53;;;;;;;6.00;1.23;;;;;;;12.27;100.00;102132.53;7395722;19;20434;-63
2022/07/10 01:47:24;;;;;;;5.33;1.67;;;;;;;12.31;100.00;102137.91;7388523;19;20417;-63
2022/07/10 01:49:54;;;;;;;11.37;2.40;;;;;;;12.25;100.00;102149.69;7397129;19;20471;-62
2022/07/10 01:52:26;;;;;;;7.90;1.20;;;;;;;12.22;100.00;102154.69;7389828;19;20422;-62
2022/07/10 01:54:55;;;;;;;11.80;1.93;;;;;;;12.22;100.00;102154.69;7395469;19;21230;-61
2022/07/10 01:57:25;;;;;;;8.80;2.23;;;;;;;12.29;100.00;102161.09;7389260;19;20427;-62
2022/07/10 01:59:54;;;;;;;6.93;1.43;;;;;;;12.33;100.00;102181.19;7398731;19;20739;-61
2022/07/10 02:02:24;;;;;;;12.33;3.10;;;;;;;12.37;100.00;102184.84;7386783;19;20423;-62
2022/07/10 02:04:51;;;;;;;5.03;1.30;;;;;;;12.36;100.00;102185.66;7395056;19;20427;-62
2022/07/10 02:07:24;;;;;;;3.07;1.03;;;;;;;12.33;100.00;102198.41;7388672;19;20419;-62
2022/07/10 02:09:56;;;;;;;4.83;1.70;;;;;;;12.30;100.00;102188.75;7396605;19;20384;-62
2022/07/10 02:12:25;;;;;;;10.27;1.50;;;;;;;12.34;100.00;102200.16;7387339;19;20445;-63
2022/07/10 02:14:59;;;;;;;9.17;1.67;;;;;;;12.30;100.00;102201.69;7395093;19;20399;-60
2022/07/10 02:17:28;;;;;;;12.23;1.93;;;;;;;12.38;100.00;102207.31;7386779;19;20496;-60
2022/07/10 02:19:58;;;;;;;8.97;2.30;;;;;;;12.37;100.00;102215.91;7396135;19;20795;-63
2022/07/10 02:22:27;;;;;;;15.50;2.30;;;;;;;12.40;100.00;102211.78;7387631;19;20425;-60
2022/07/10 02:24:59;;;;;;;9.80;1.80;;;;;;;12.42;100.00;102227.41;7394840;19;20415;-60
2022/07/10 02:27:29;;;;;;;7.07;2.13;;;;;;;12.37;100.00;102227.13;7386934;19;20420;-60
2022/07/10 02:29:58;;;;;;;7.50;1.80;;;;;;;12.39;100.00;102229.81;7395791;19;20384;-61
2022/07/10 02:32:28;;;;;;;10.33;2.00;;;;;;;12.34;100.00;102237.31;7387712;19;20431;-61
2022/07/10 02:34:58;;;;;;;11.77;1.77;;;;;;;12.33;100.00;102234.63;7397709;19;20435;-61
2022/07/10 02:37:27;;;;;;;13.23;1.50;;;;;;;12.28;100.00;102237.84;7387309;19;20416;-61
2022/07/10 02:39:59;;;;;;;6.30;1.93;;;;;;;12.28;100.00;102240.44;7395584;19;20388;-61
2022/07/10 02:42:29;;;;;;;7.80;1.53;;;;;;;12.32;100.00;102232.84;7389183;19;20421;-61
2022/07/10 02:44:58;;;;;;;16.07;3.50;;;;;;;12.29;100.00;102242.22;7393911;19;20406;-61
2022/07/10 02:47:28;;;;;;;13.37;4.97;;;;;;;12.35;100.00;102246.84;7383258;19;20955;-61
2022/07/10 02:49:57;;;;;;;11.40;2.77;;;;;;;12.40;100.00;102240.25;7395286;19;20738;-61
2022/07/10 02:52:30;;;;;;;10.90;1.83;;;;;;;12.42;100.00;102245.53;7385590;19;20428;-60
2022/07/10 02:55:02;;;;;;;9.43;2.47;;;;;;;12.39;100.00;102240.16;7393660;19;20516;-60
2022/07/10 02:57:32;;;;;;;10.80;2.13;;;;;;;12.44;100.00;102236.16;7386694;19;20415;-61
2022/07/10 03:00:01;;;;;;;25.33;7.90;;;;;;;12.44;100.00;102249.09;7394676;19;20390;-60
2022/07/10 03:02:31;;;;;;;10.13;2.40;;;;;;;12.37;100.00;102254.72;7387966;19;20436;-60
2022/07/10 03:05:00;;;;;;;18.63;4.00;;;;;;;12.35;100.00;102254.63;7393089;19;20500;-61
2022/07/10 03:07:30;;;;;;;17.87;2.43;;;;;;;12.38;100.00;102259.09;7389800;19;20442;-61
2022/07/10 03:10:02;;;;;;;8.27;2.07;;;;;;;12.41;100.00;102259.28;7396909;19;20394;-60
2022/07/10 03:12:31;;;;;;;9.70;1.80;;;;;;;12.39;100.00;102261.78;7386927;19;20519;-60
2022/07/10 03:15:01;;;;;;;18.40;3.70;;;;;;;12.36;100.00;102261.56;7393147;19;20413;-60
2022/07/10 03:17:31;;;;;;;15.47;4.63;;;;;;;12.42;100.00;102261.94;7385016;19;20425;-60
2022/07/10 03:20:00;;;;;;;10.40;2.73;;;;;;;12.48;100.00;102264.00;7394358;19;20392;-60
2022/07/10 03:22:31;;;;;;;13.20;2.30;;;;;;;12.49;100.00;102265.78;7385677;19;20424;-59
2022/07/10 03:25:03;;;;;;;18.50;4.07;;;;;;;12.52;100.00;102268.53;7392874;19;20412;-61
2022/07/10 03:27:33;;;;;;;12.20;2.80;;;;;;;12.63;100.00;102271.75;7386043;19;21252;-61
2022/07/10 03:30:02;;;;;;;11.50;2.37;;;;;;;12.49;100.00;102286.50;7393973;19;20390;-61
2022/07/10 03:32:32;;;;;;;12.80;2.97;;;;;;;12.49;100.00;102278.72;7384386;19;20421;-61
2022/07/10 03:35:02;;;;;;;12.63;2.57;;;;;;;12.49;100.00;102270.97;7392291;19;20413;-60
2022/07/10 03:37:31;;;;;;;12.73;3.33;;;;;;;12.45;100.00;102271.56;7385393;19;20891;-61
2022/07/10 03:40:04;;;;;;;12.03;2.37;;;;;;;12.37;100.00;102267.66;7393801;19;20405;-61
2022/07/10 03:42:34;;;;;;;10.53;2.50;;;;;;;12.44;100.00;102274.97;7386020;19;20421;-61
2022/07/10 03:45:03;;;;;;;9.40;2.30;;;;;;;12.41;100.00;102285.16;7392297;19;20419;-60
2022/07/10 03:47:33;;;;;;;12.33;3.23;;;;;;;12.42;100.00;102285.22;7383475;19;20417;-61
2022/07/10 03:50:03;;;;;;;14.23;2.50;;;;;;;12.46;100.00;102299.25;7393463;19;20379;-61
2022/07/10 03:52:33;;;;;;;11.13;2.40;;;;;;;12.45;100.00;102297.47;7385953;19;20416;-61
2022/07/10 03:55:05;;;;;;;12.23;2.53;;;;;;;12.51;100.00;102308.19;7390927;19;20422;-59
2022/07/10 04:00:17;;;;;;;9.53;2.47;;;;;;;12.52;100.00;102322.91;7392228;19;20384;-61
2022/07/10 04:02:46;;;;;;;11.10;2.97;;;;;;;12.46;100.00;102330.31;7385095;19;20494;-61
2022/07/10 04:05:16;;;;;;;12.30;2.50;;;;;;;12.45;100.00;102325.94;7391213;19;20944;-61
2022/07/10 04:07:45;;;;;;;15.23;2.30;;;;;;;12.50;100.00;102316.75;7383504;19;20433;-60
2022/07/10 04:10:17;;;;;;;13.43;3.03;;;;;;;12.53;100.00;102329.88;7392489;19;20393;-61
2022/07/10 04:12:48;;;;;;;20.43;3.13;;;;;;;12.56;100.00;102327.47;7385970;19;20420;-61
2022/07/10 04:15:18;;;;;;;11.30;2.77;;;;;;;12.50;100.00;102333.97;7390875;19;20761;-61
2022/07/10 04:17:48;;;;;;;13.77;2.60;;;;;;;12.55;100.00;102336.03;7382185;19;20476;-61
2022/07/10 04:20:18;;;;;;;20.33;3.60;;;;;;;12.61;100.00;102332.91;7391375;19;20412;-61
2022/07/10 04:22:48;;;;;;;17.37;3.87;;;;;;;12.52;100.00;102340.16;7384719;19;20428;-61
2022/07/10 04:25:20;;;;;;;16.50;3.43;;;;;;;12.46;100.00;102335.47;7390991;19;20956;-60
2022/07/10 04:27:49;;;;;;;26.43;10.77;;;;;;;12.44;100.00;102316.38;7386507;19;20430;-60
2022/07/10 04:30:19;;;;;;;10.93;2.90;;;;;;;12.54;100.00;102323.91;7392226;19;20392;-61
2022/07/10 04:32:48;;;;;;;16.10;2.93;;;;;;;12.85;100.00;102317.00;7380327;19;20428;-61
2022/07/10 04:35:18;;;;;;;82.47;39.17;;;;;;;12.79;100.00;102333.09;7392447;19;20423;-62
2022/07/10 04:37:47;;;;;;;43.40;18.50;;;;;;;13.13;100.00;102320.28;7383682;19;20464;-61
2022/07/10 04:40:19;;;;;;;15.97;6.80;;;;;;;12.96;100.00;102370.34;7393740;19;20928;-61
2022/07/10 04:42:49;;;;;;;23.30;8.37;;;;;;;13.12;100.00;102378.09;7385955;19;20413;-60
2022/07/10 04:45:18;;;;;;;22.13;6.87;;;;;;;12.93;100.00;102392.59;7390084;19;20414;-61
2022/07/10 04:47:48;;;;;;;18.97;4.90;;;;;;;12.96;100.00;102384.97;7383314;19;20421;-61
2022/07/10 04:50:17;;;;;;;20.10;4.60;;;;;;;12.83;100.00;102404.97;7392265;19;20939;-61
2022/07/10 04:52:47;;;;;;;15.03;4.87;;;;;;;13.01;100.00;102393.91;7384300;19;20937;-59
2022/07/10 04:55:20;;;;;;;24.03;8.10;;;;;;;13.37;100.00;102414.06;7388750;19;20422;-61
2022/07/10 04:57:49;;;;;;;73.87;16.63;;;;;;;13.12;100.00;102454.13;7384850;19;21004;-61
2022/07/10 05:00:19;;;;;;;18.43;6.93;;;;;;;13.00;100.00;102459.50;7390869;19;20387;-59
2022/07/10 05:02:48;;;;;;;9.80;3.30;;;;;;;13.01;100.00;102463.88;7382376;19;20426;-60
2022/07/10 05:05:18;;;;;;;12.37;3.80;;;;;;;13.12;100.00;102464.47;7389584;19;20406;-59
2022/07/10 05:07:48;;;;;;;12.53;2.40;;;;;;;12.98;100.00;102484.41;7390763;19;20455;-61
2022/07/10 05:10:20;;;;;;;18.17;6.03;;;;;;;12.90;100.00;102498.59;7400266;19;20394;-61
2022/07/10 05:12:50;;;;;;;23.43;3.47;;;;;;;12.87;100.00;102490.66;7390160;19;20416;-61
2022/07/10 05:15:19;;;;;;;38.00;9.53;;;;;;;12.80;100.00;102498.06;7395053;19;20946;-61
2022/07/10 05:17:48;;;;;;;20.03;4.50;;;;;;;12.80;100.00;102502.31;7390559;19;20412;-61
2022/07/10 05:20:18;;;;;;;16.53;3.57;;;;;;;12.81;100.00;102505.03;7397897;19;20404;-61
2022/07/10 05:22:48;;;;;;;15.60;3.20;;;;;;;12.83;100.00;102497.34;7390512;19;20437;-61
2022/07/10 05:25:20;;;;;;;21.23;2.77;;;;;;;12.85;100.00;102507.78;7396077;19;20402;-61
2022/07/10 05:27:49;;;;;;;21.33;3.53;;;;;;;12.81;100.00;102507.59;7389421;19;20427;-61
2022/07/10 05:30:19;;;;;;;20.07;3.53;;;;;;;12.92;100.00;102518.59;7397294;19;20393;-61
2022/07/10 05:32:49;;;;;;;35.83;8.77;;;;;;;12.94;100.00;102531.66;7386624;19;20410;-61
2022/07/10 05:35:19;;;;;;;35.13;8.00;;;;;;;12.96;100.00;102546.50;7394849;19;20433;-62
2022/07/10 05:37:48;;;;;;;10.90;3.37;;;;;;;12.92;100.00;102538.47;7386221;19;20405;-61
2022/07/10 05:40:20;;;;;;;17.73;2.90;;;;;;;12.99;100.00;102527.66;7395326;19;20381;-60
2022/07/10 05:42:50;;;;;;;8.80;3.00;;;;;;;13.06;100.00;102532.41;7386088;19;20432;-61
2022/07/10 05:45:20;;;;;;;14.37;2.80;;;;;;;13.08;100.00;102541.16;7393492;19;20428;-60
2022/07/10 05:47:50;;;;;;;13.97;2.93;;;;;;;13.18;100.00;102539.13;7385622;19;20411;-61
2022/07/10 05:50:19;;;;;;;14.37;4.37;;;;;;;13.21;100.00;102544.47;7394614;19;20386;-61
2022/07/10 05:52:49;;;;;;;14.53;3.20;;;;;;;13.19;100.00;102554.75;7386337;19;20915;-61
2022/07/10 05:55:21;;;;;;;12.00;2.97;;;;;;;13.29;100.00;102552.72;7392200;19;20420;-60
2022/07/10 05:57:51;;;;;;;13.80;2.90;;;;;;;13.31;100.00;102549.41;7384926;19;20769;-61
2022/07/10 06:00:20;;;;;;;12.93;2.87;;;;;;;13.27;100.00;102568.16;7394626;19;20391;-60
2022/07/10 06:02:51;;;;;;;9.80;3.23;;;;;;;13.29;100.00;102556.22;7385768;19;20411;-60
2022/07/10 06:05:21;;;;;;;10.13;2.60;;;;;;;13.40;100.00;102554.25;7393731;19;20401;-60
2022/07/10 06:07:51;;;;;;;18.33;3.00;;;;;;;13.36;100.00;102552.28;7388489;19;20434;-61
2022/07/10 06:10:23;;;;;;;10.60;2.40;;;;;;;13.35;100.00;102541.00;7394705;19;20387;-61
2022/07/10 06:12:52;;;;;;;12.20;2.97;;;;;;;13.35;100.00;102533.22;7387185;19;20487;-60
2022/07/10 06:15:22;;;;;;;12.37;3.47;;;;;;;13.40;100.00;102491.13;7392678;19;20422;-60
2022/07/10 06:17:52;;;;;;;15.60;2.60;;;;;;;13.41;100.00;102441.06;7383123;19;20428;-60
2022/07/10 06:20:21;;;;;;;28.13;7.63;;;;;;;13.39;100.00;102458.22;7394440;19;20459;-60
2022/07/10 06:22:51;;;;;;;16.23;2.90;;;;;;;13.32;100.00;102402.53;7387704;19;20496;-61
2022/07/10 06:25:23;;;;;;;12.63;2.80;;;;;;;13.40;100.00;102348.53;7392409;19;20414;-60
2022/07/10 06:27:53;;;;;;;13.73;2.87;;;;;;;13.36;100.00;102344.88;7388019;19;20418;-61
2022/07/10 06:30:22;;;;;;;14.53;2.90;;;;;;;13.45;100.00;102235.63;7399295;19;20394;-60
2022/07/10 06:32:52;;;;;;;16.63;2.60;;;;;;;13.52;100.00;102191.09;7386905;19;20970;-61
2022/07/10 06:35:22;;;;;;;12.67;2.43;;;;;;;13.61;100.00;102144.91;7392646;19;20514;-61
2022/07/10 06:37:51;;;;;;;10.17;2.47;;;;;;;13.77;100.00;102123.22;7384054;19;20420;-61
2022/07/10 06:40:25;;;;;;;14.43;2.37;;;;;;;13.84;100.00;102106.25;7396351;19;20506;-60
2022/07/10 06:42:54;;;;;;;15.43;2.43;;;;;;;13.86;100.00;102109.84;7387337;19;20425;-60
2022/07/10 06:45:24;;;;;;;16.77;3.30;;;;;;;13.85;100.00;102108.03;7392662;19;20439;-60
2022/07/10 06:47:59;;;;;;;15.70;2.47;;;;;;;13.75;100.00;102079.88;7387332;19;20427;-60
2022/07/10 06:50:34;;;;;;;13.60;2.70;;;;;;;13.81;100.00;102079.28;7394918;19;20387;-60
2022/07/10 06:53:04;;;;;;;13.57;2.20;;;;;;;13.83;100.00;102072.44;7386884;19;20422;-60
2022/07/10 06:55:36;;;;;;;19.97;2.63;;;;;;;13.87;100.00;102070.09;7393027;19;20431;-60
2022/07/10 06:58:06;;;;;;;18.17;2.90;;;;;;;13.88;100.00;102065.78;7386369;19;20426;-61
2022/07/10 07:00:36;;;;;;;12.57;3.20;;;;;;;13.83;100.00;102075.03;7394717;19;20392;-61
2022/07/10 07:03:05;;;;;;;9.30;2.20;;;;;;;13.95;100.00;102074.78;7383543;19;20425;-59
2022/07/10 07:05:35;;;;;;;10.13;2.13;;;;;;;14.09;100.00;102055.56;7392721;19;20422;-62
2022/07/10 07:08:04;;;;;;;10.10;2.07;;;;;;;14.17;100.00;102054.22;7389408;19;20435;-60
2022/07/10 07:10:37;;;;;;;15.93;2.60;;;;;;;14.17;100.00;102049.03;7394500;19;20379;-61
2022/07/10 07:13:09;;;;;;;14.97;2.53;;;;;;;14.10;100.00;102023.59;7387160;19;20420;-60
2022/07/10 07:15:42;;;;;;;10.20;1.77;;;;;;;14.02;100.00;102019.75;7392755;19;20430;-61
2022/07/10 07:18:12;;;;;;;12.73;3.07;;;;;;;13.94;100.00;102002.94;7383704;19;20422;-61
2022/07/10 07:23:25;;;;;;;11.13;2.20;;;;;;;14.07;100.00;101986.25;7383939;19;20415;-59
2022/07/10 07:25:57;;;;;;;10.87;2.10;;;;;;;14.13;100.00;101990.03;7392146;19;20425;-59
2022/07/10 07:28:27;;;;;;;10.23;2.30;;;;;;;14.45;100.00;101998.41;7384495;19;20983;-61
2022/07/10 07:30:59;;;;;;;12.83;2.13;;;;;;;14.44;100.00;101955.09;7392717;19;20391;-60
2022/07/10 07:33:29;;;;;;;12.70;2.40;;;;;;;14.28;100.00;101952.59;7385167;19;20397;-63
2022/07/10 07:35:58;;;;;;;12.83;1.80;;;;;;;14.24;100.00;101955.88;7392050;19;20415;-60
2022/07/10 07:38:28;;;;;;;11.10;1.80;;;;;;;14.32;100.00;101928.56;7386185;19;20422;-59
2022/07/10 07:41:00;;;;;;;15.60;2.33;;;;;;;14.29;100.00;101950.09;7392947;19;20390;-59
2022/07/10 07:43:30;;;;;;;10.33;2.10;;;;;;;14.31;100.00;101956.22;7387273;19;20425;-63
2022/07/10 07:45:59;;;;;;;8.27;2.17;;;;;;;14.48;100.00;101935.34;7391858;19;20425;-62
2022/07/10 07:48:29;;;;;;;15.87;3.03;;;;;;;14.60;100.00;101922.00;7379871;19;20948;-62
2022/07/10 07:50:58;;;;;;;16.50;3.50;;;;;;;14.53;100.00;101901.78;7393195;19;20387;-62
2022/07/10 07:53:28;;;;;;;13.77;2.23;;;;;;;14.52;100.00;101887.03;7385997;19;20779;-62
2022/07/10 07:56:00;;;;;;;14.93;1.90;;;;;;;14.39;100.00;101857.94;7391440;19;20938;-61
2022/07/10 07:58:30;;;;;;;8.47;2.20;;;;;;;14.45;100.00;101873.78;7386068;19;20417;-62
2022/07/10 08:01:00;;;;;;;14.80;2.60;;;;;;;14.64;100.00;101864.19;7392775;19;20931;-62
2022/07/10 08:03:30;;;;;;;12.53;1.93;;;;;;;14.65;100.00;101857.25;7384161;19;20407;-62
2022/07/10 08:06:19;;;;;;;11.43;1.80;;;;;;;14.65;100.00;101802.72;7390966;19;20399;-62
2022/07/10 08:08:49;;;;;;;6.37;1.50;;;;;;;14.74;100.00;101766.78;7386306;19;20434;-62
2022/07/10 08:11:22;;;;;;;10.27;2.20;;;;;;;14.96;100.00;101688.00;7392370;19;20762;-62
2022/07/10 08:13:52;;;;;;;9.23;1.67;;;;;;;15.09;100.00;101662.47;7384972;19;20421;-62
2022/07/10 08:16:21;;;;;;;13.70;2.27;;;;;;;15.14;100.00;101606.34;7390627;19;20423;-63
2022/07/10 08:18:51;;;;;;;8.03;1.80;;;;;;;15.34;100.00;101577.59;7384355;19;20419;-61
2022/07/10 08:21:22;;;;;;;20.37;8.67;;;;;;;15.46;100.00;101552.00;7396160;19;20834;-62
2022/07/10 08:23:53;;;;;;;8.90;2.13;;;;;;;15.46;100.00;101501.72;7385977;19;20405;-62
2022/07/10 08:26:25;;;;;;;8.67;1.57;;;;;;;15.52;100.00;101461.19;7390542;19;20489;-62
2022/07/10 08:28:55;;;;;;;10.70;2.27;;;;;;;15.57;100.00;101461.34;7380390;19;20493;-62
2022/07/10 08:31:24;;;;;;;14.57;2.20;;;;;;;15.68;100.00;101388.84;7392881;19;20910;-61
2022/07/10 08:33:54;;;;;;;7.30;1.43;;;;;;;15.74;100.00;101354.34;7382736;19;20420;-61
2022/07/10 08:36:24;;;;;;;6.93;1.20;;;;;;;15.85;100.00;101372.88;7389522;19;20423;-62
2022/07/10 08:39:15;;;;;;;10.90;3.40;;;;;;;15.94;100.00;101347.16;7388308;19;20439;-62
2022/07/10 08:41:49;;;;;;;14.17;3.57;;;;;;;16.05;100.00;101316.25;7395240;19;20398;-61
2022/07/10 08:44:20;;;;;;;12.07;2.50;;;;;;;16.00;100.00;101279.66;7401859;19;20499;-61
2022/07/10 08:46:49;;;;;;;22.53;9.83;;;;;;;16.10;100.00;101269.53;7391715;19;20460;-60
2022/07/10 08:49:20;;;;;;;25.33;10.00;;;;;;;16.23;100.00;101282.03;7398194;19;20390;-60
2022/07/10 08:51:53;;;;;;;10.90;2.30;;;;;;;16.26;100.00;101289.91;7392246;19;20388;-59
2022/07/10 08:54:23;;;;;;;8.20;1.50;;;;;;;16.15;100.00;101247.13;7397626;19;20387;-60
2022/07/10 08:56:55;;;;;;;36.67;13.27;;;;;;;16.17;100.00;101245.41;7394018;19;20401;-62
2022/07/10 08:59:25;;;;;;;11.87;4.47;;;;;;;16.15;100.00;101224.53;7397823;19;20389;-63
2022/07/10 09:02:01;;;;;;;14.27;4.50;;;;;;;16.15;100.00;101226.28;7391691;19;21505;-60
2022/07/10 09:04:30;;;;;;;10.47;2.73;;;;;;;16.10;100.00;101183.63;7397349;19;20375;-62
2022/07/10 09:07:00;;;;;;;6.50;1.63;;;;;;;16.25;100.00;101225.66;7391039;19;20793;-63
2022/07/10 09:09:29;;;;;;;11.00;1.50;;;;;;;16.33;100.00;101236.28;7397193;19;20936;-62
2022/07/10 09:12:01;;;;;;;8.70;2.20;;;;;;;16.54;100.00;101277.63;7392682;19;20397;-62
2022/07/10 09:14:32;;;;;;;10.10;1.60;;;;;;;16.69;100.00;101277.13;7397049;19;20372;-62
2022/07/10 09:17:04;;;;;;;10.57;2.90;;;;;;;16.75;100.00;101250.34;7389241;19;20433;-62
2022/07/10 09:19:34;;;;;;;10.80;1.77;;;;;;;16.92;100.00;101253.34;7399071;19;20757;-63
2022/07/10 09:22:07;;;;;;;16.10;4.00;;;;;;;16.90;100.00;101186.38;7388315;19;20412;-63
2022/07/10 09:24:41;;;;;;;12.83;3.77;;;;;;;16.79;100.00;101174.00;7397137;19;20715;-61
2022/07/10 09:27:15;;;;;;;17.93;3.87;;;;;;;16.57;100.00;101225.59;7389953;19;20402;-63
2022/07/10 09:29:51;;;;;;;71.77;39.27;;;;;;;16.65;100.00;101258.75;7397727;19;20406;-63
2022/07/10 09:32:21;;;;;;;8.20;2.20;;;;;;;16.73;100.00;101219.03;7388177;19;20441;-62
2022/07/10 09:36:04;;;;;;;14.23;3.00;;;;;;;16.76;100.00;101215.63;7396121;19;20398;-60
2022/07/10 09:37:43;;;;;;;17.97;3.37;;;;;;;16.69;100.00;101247.56;7389080;19;20800;-62
2022/07/10 09:40:13;;;;;;;7.00;2.30;;;;;;;16.94;100.00;101302.88;7397003;19;20467;-63
2022/07/10 09:42:47;;;;;;;8.10;1.40;;;;;;;16.82;100.00;101257.44;7388213;19;20416;-62
2022/07/10 09:45:21;;;;;;;10.27;2.07;;;;;;;16.49;100.00;101208.00;7395252;19;20424;-62
2022/07/10 09:47:58;;;;;;;11.10;2.80;;;;;;;16.52;100.00;101193.38;7389101;19;20492;-60
2022/07/10 09:50:30;;;;;;;11.47;1.70;;;;;;;16.60;100.00;101215.25;7397467;19;20384;-63
2022/07/10 09:53:00;;;;;;;11.87;2.83;;;;;;;16.77;100.00;101238.22;7386893;19;20425;-62
2022/07/10 09:55:31;;;;;;;11.13;2.47;;;;;;;16.98;100.00;101184.84;7394657;19;20417;-62
2022/07/10 09:58:04;;;;;;;8.77;1.93;;;;;;;17.09;100.00;101114.72;7387285;19;20765;-61
2022/07/10 10:00:35;;;;;;;6.60;1.40;;;;;;;17.33;100.00;101072.59;7396385;19;20386;-63
2022/07/10 10:03:06;;;;;;;7.53;1.70;;;;;;;17.26;100.00;101027.31;7389584;19;20986;-62
2022/07/10 10:05:39;;;;;;;5.63;1.63;;;;;;;17.40;100.00;101071.88;7394172;19;20786;-61
2022/07/10 10:08:18;;;;;;;9.87;2.83;;;;;;;17.19;100.00;101028.06;7388908;19;20417;-62
2022/07/10 10:10:49;;;;;;;9.03;1.90;;;;;;;17.13;100.00;101080.06;7396438;19;20394;-63
2022/07/10 10:13:23;;;;;;;12.03;2.83;;;;;;;17.06;100.00;101037.34;7387271;19;20771;-62
2022/07/10 10:15:54;;;;;;;8.77;2.10;;;;;;;17.18;100.00;101028.88;7394273;19;20417;-59
2022/07/10 10:18:25;;;;;;;10.57;1.90;;;;;;;17.17;100.00;101204.38;7386052;19;20783;-63
2022/07/10 10:20:54;;;;;;;8.53;1.67;;;;;;;17.31;100.00;101216.84;7396058;19;20400;-62
2022/07/10 10:23:27;;;;;;;11.70;2.23;;;;;;;17.21;100.00;101280.94;7387130;19;20418;-63
2022/07/10 10:25:58;;;;;;;9.40;2.17;;;;;;;17.37;100.00;101271.72;7395119;19;20962;-63
2022/07/10 10:28:31;;;;;;;6.77;1.80;;;;;;;17.14;100.00;101327.72;7387220;19;20421;-61
2022/07/10 10:31:02;;;;;;;7.90;1.50;;;;;;;17.26;100.00;101305.41;7395745;19;20389;-62
2022/07/10 10:33:51;;;;;;;9.33;3.07;;;;;;;16.97;100.00;101297.78;7388143;19;20890;-62
2022/07/10 10:36:46;;;;;;;5.97;1.70;;;;;;;16.74;100.00;101305.91;7393342;19;20428;-59
2022/07/10 10:39:21;;;;;;;9.80;1.90;;;;;;;17.26;100.00;101279.31;7394132;19;20419;-63
2022/07/10 10:41:52;;;;;;;5.63;1.20;;;;;;;17.62;100.00;101312.28;7386988;19;20403;-61
2022/07/10 10:44:37;;;;;;;12.73;1.50;;;;;;;17.35;100.00;101330.81;7393684;19;20407;-63
2022/07/10 10:47:10;;;;;;;6.60;2.30;;;;;;;17.17;100.00;101320.84;7387042;19;20418;-63
2022/07/10 10:50:02;;;;;;;6.53;1.67;;;;;;;17.39;100.00;101297.00;7394928;19;20392;-63
2022/07/10 10:52:32;;;;;;;8.37;2.00;;;;;;;17.23;100.00;101314.03;7389130;19;20495;-63
2022/07/10 10:55:12;;;;;;;8.07;1.70;;;;;;;17.05;100.00;101306.69;7393587;19;20422;-62
2022/07/10 10:57:51;;;;;;;8.10;1.53;;;;;;;17.55;100.00;101284.31;7386426;19;20513;-63
2022/07/10 11:00:41;;;;;;;5.13;1.60;;;;;;;17.38;100.00;101310.03;7394576;19;20402;-63
2022/07/10 11:03:18;;;;;;;10.50;2.80;;;;;;;17.27;100.00;101322.81;7384869;19;20414;-63
2022/07/10 11:05:49;;;;;;;8.47;1.97;;;;;;;17.09;100.00;101308.53;7391504;19;20485;-63
2022/07/10 11:08:37;;;;;;;7.13;1.50;;;;;;;17.39;100.00;101320.47;7386703;19;20410;-63
2022/07/10 11:11:43;;;;;;;5.73;1.90;;;;;;;17.22;100.00;101298.38;7394259;19;20392;-63
2022/07/10 11:14:13;;;;;;;9.40;1.50;;;;;;;17.23;100.00;101316.63;7395095;19;20437;-62
2022/07/10 11:16:51;;;;;;;8.53;1.27;;;;;;;17.35;100.00;101318.66;7387568;19;20445;-63
2022/07/10 11:19:26;;;;;;;7.97;1.30;;;;;;;17.74;100.00;101331.66;7393497;19;20394;-62
2022/07/10 11:22:27;;;;;;;10.83;2.30;;;;;;;18.03;100.00;101337.47;7387272;19;20394;-62
2022/07/10 11:25:04;;;;;;;9.60;1.50;;;;;;;17.94;100.00;101335.56;7392719;19;20926;-61
2022/07/10 11:27:55;;;;;;;7.33;1.30;;;;;;;17.63;100.00;101355.78;7386449;19;20439;-64
2022/07/10 11:30:24;;;;;;;4.90;1.53;;;;;;;17.68;100.00;101329.78;7393520;19;20912;-62
2022/07/10 11:32:56;;;;;;;5.17;1.27;;;;;;;17.31;100.00;101332.47;7385352;19;20415;-61
2022/07/10 11:35:26;;;;;;;10.13;1.80;;;;;;;17.08;100.00;101306.72;7391682;19;20416;-62
2022/07/10 11:37:56;;;;;;;6.40;1.33;;;;;;;16.97;100.00;101293.41;7383190;19;20442;-63